Aeroporto :
LOGIN :

Iscrizione | Disclaimer

   EN    FR    IT 

 










Sommario :    VFR   VFR Marginale   IFR   IFR Intensivo   IFR Molto Intensivo
Visibilità : 
Base nubi : 
>= 8 km
>= 3000ft
5 / 8 km
1000 / 3000 ft
1500m / 5 km
500 / 1000 ft
800 / 1500m
200 / 500 ft
< 800m
< 200 ft
Simboli :   Temporali  Nebbia  Neve Forte  Precipitazioni Forti  Vento > 20 kt
SIGMETs :   Varie  Temporali  Ghiacco  Turbolenza  Onda orograficha  Ceneri Vulcaniche







- Altitudine del aeroporto : 392 ft
- Codice IATA : CDG
- Carte del aeroporto


LFPG - Paris-Aeroport Charles De Gaulle

ULTIMO METAR :
  • 200030Z 24005KT 9999 FEW011 BKN041 BKN086 17/15 Q1012 NOSIG

METARs OBSOLETI :
  • 200000Z 27003KT 9999 FEW011 SCT060 BKN086 17/15 Q1012 NOSIG
  • 192330Z VRB03KT 9999 FEW043 BKN060 BKN080 17/15 Q1012 NOSIG
  • 192300Z 25003KT 9999 FEW046 BKN063 BKN086 17/15 Q1012 NOSIG
  • 192230Z VRB02KT CAVOK 17/15 Q1012 NOSIG
  • 192200Z 27004KT 9999 FEW017 BKN076 BKN110 17/15 Q1012 NOSIG

TAF TAF LFPG
Valido dal 20 a 00 ore il 21 a 06 ore UTC


192300Z 2000/2106 27006KT 9999 SCT040 BKN060 TX21/2015Z TN13/2100Z
PROB40
TEMPO 2003/2006 3000 RA BKN008 SCT030TCU
PROB40
TEMPO 2007/2009 BKN012
PROB30
TEMPO 2012/2016 FEW040TCU
ATIS : +33 1 48 62 10 92
Nessun NOTAM noto per questo aeroporto.



MetMap, La meteo Aeronautica in un colpo d'occhio ! - Copyright ORBIFLY Dicembre 2007 - Disclaimer

ORBIFLY MET'MAP TEAM :

Programmazione e sviluppo : Alexandra Zaïnal
Concezione e sviluppo : Baudouin d'Aumeries
Co-Programmazione e sviluppo : Marc-Olivier Méhu
Supporto tecnico e logistico : Manuel Goepfert
Aiuto per la traduzione : Arnaldo La Scala

Contatto : metmap@orbifly.com




FONTI E CREDITI :

   NOAA